createdAt,value
2023-05-08T00:01:49.919Z,15.92
2023-05-08T00:04:20.552Z,15.88
2023-05-08T00:06:49.938Z,16.02
2023-05-08T00:09:18.236Z,16.05
2023-05-08T00:11:46.620Z,15.99
2023-05-08T00:14:15.000Z,16.00
2023-05-08T00:16:45.436Z,16.15
2023-05-08T00:19:13.736Z,16.08
2023-05-08T00:21:45.577Z,15.68
2023-05-08T00:24:16.345Z,15.81
2023-05-08T00:26:45.624Z,15.51
2023-05-08T00:29:13.965Z,15.94
2023-05-08T00:31:42.265Z,15.79
2023-05-08T00:34:10.599Z,15.59
2023-05-08T00:36:38.857Z,16.15
2023-05-08T00:39:08.624Z,16.24
2023-05-08T00:41:39.524Z,16.41
2023-05-08T00:44:08.374Z,16.19
2023-05-08T00:46:37.156Z,16.09
2023-05-08T00:49:06.674Z,15.95
2023-05-08T00:51:35.192Z,15.67
2023-05-08T00:54:04.040Z,15.97
2023-05-08T00:56:35.110Z,16.23
2023-05-08T00:59:04.730Z,16.07
2023-05-08T01:01:35.495Z,16.00
2023-05-08T01:04:04.321Z,16.39
2023-05-08T01:06:32.761Z,16.32
2023-05-08T01:09:01.632Z,16.11
2023-05-08T01:11:35.153Z,16.43
2023-05-08T01:14:13.447Z,16.49
2023-05-08T01:16:46.144Z,16.14
2023-05-08T01:19:35.807Z,16.17
2023-05-08T01:22:19.660Z,16.27
2023-05-08T01:25:24.980Z,16.23
2023-05-08T01:28:29.214Z,16.03
2023-05-08T01:31:08.564Z,16.14
2023-05-08T01:33:47.269Z,16.59
2023-05-08T01:36:27.240Z,16.43
2023-05-08T01:39:03.102Z,16.35
2023-05-08T01:41:35.532Z,16.03
2023-05-08T01:44:14.437Z,15.84
2023-05-08T01:46:46.143Z,15.78
2023-05-08T01:49:25.349Z,15.85
2023-05-08T01:51:58.916Z,16.06
2023-05-08T01:54:31.372Z,15.75
2023-05-08T01:57:02.132Z,15.70
2023-05-08T01:59:33.976Z,15.54
2023-05-08T02:02:04.403Z,15.67
2023-05-08T02:04:35.635Z,15.66
2023-05-08T02:07:09.040Z,15.42
2023-05-08T02:09:38.882Z,15.43
2023-05-08T02:12:09.270Z,15.57
2023-05-08T02:14:42.769Z,15.41
2023-05-08T02:17:13.593Z,15.48
2023-05-08T02:19:46.754Z,15.12
2023-05-08T02:22:19.146Z,15.38
2023-05-08T02:24:48.080Z,15.52
2023-05-08T02:27:17.602Z,15.56
2023-05-08T02:29:48.351Z,15.94
2023-05-08T02:32:18.264Z,15.36
2023-05-08T02:35:01.909Z,15.42
2023-05-08T02:37:33.002Z,15.31
2023-05-08T02:40:03.724Z,15.37
2023-05-08T02:42:34.615Z,15.51
2023-05-08T02:45:03.776Z,15.48
2023-05-08T02:47:40.580Z,15.60
2023-05-08T02:50:17.840Z,15.39
2023-05-08T02:52:49.463Z,15.36
2023-05-08T02:55:30.814Z,15.40
2023-05-08T02:58:07.813Z,15.30
2023-05-08T03:00:46.210Z,15.46
2023-05-08T03:03:20.658Z,15.47
2023-05-08T03:05:53.639Z,15.59
2023-05-08T03:08:26.888Z,15.86
2023-05-08T03:11:02.304Z,15.85
2023-05-08T03:13:35.434Z,15.73
2023-05-08T03:16:07.361Z,15.90
2023-05-08T03:18:43.205Z,16.02
2023-05-08T03:21:16.683Z,15.90
2023-05-08T03:23:45.982Z,15.61
2023-05-08T03:26:19.446Z,15.73
2023-05-08T03:28:49.437Z,15.89
2023-05-08T03:31:21.204Z,15.16
2023-05-08T03:33:55.697Z,15.14
2023-05-08T03:36:27.003Z,15.42
2023-05-08T03:39:00.884Z,15.63
2023-05-08T03:41:29.749Z,15.52
2023-05-08T03:43:59.566Z,15.58
2023-05-08T03:46:28.013Z,15.66
2023-05-08T03:49:00.169Z,15.63
2023-05-08T03:51:31.296Z,15.73
2023-05-08T03:54:01.899Z,15.75
2023-05-08T03:56:32.613Z,15.58
2023-05-08T03:59:15.356Z,15.83
2023-05-08T04:01:50.095Z,15.47
2023-05-08T04:04:21.116Z,15.70
2023-05-08T04:06:57.849Z,15.82
2023-05-08T04:09:38.368Z,15.94
2023-05-08T04:12:18.907Z,16.05
2023-05-08T04:14:52.735Z,15.92
2023-05-08T04:17:28.979Z,15.71
2023-05-08T04:20:04.087Z,15.91
2023-05-08T04:22:36.548Z,16.05
2023-05-08T04:25:08.432Z,15.98
2023-05-08T04:27:37.508Z,16.11
2023-05-08T04:30:07.084Z,15.61
2023-05-08T04:32:41.258Z,15.58
2023-05-08T04:35:13.293Z,15.41
2023-05-08T04:37:44.747Z,15.09
2023-05-08T04:40:13.742Z,15.26
2023-05-08T04:42:47.010Z,15.04
2023-05-08T04:45:19.566Z,15.25
2023-05-08T04:47:48.397Z,15.19
2023-05-08T04:50:17.323Z,15.21
2023-05-08T04:52:46.958Z,15.51
2023-05-08T04:55:15.450Z,15.81
2023-05-08T04:57:44.510Z,15.98
2023-05-08T05:00:14.195Z,15.51
2023-05-08T05:02:44.131Z,15.39
2023-05-08T05:05:12.832Z,15.31
2023-05-08T05:07:41.886Z,15.46
2023-05-08T05:10:12.216Z,15.45
2023-05-08T05:12:40.765Z,15.66
2023-05-08T05:15:12.712Z,15.89
2023-05-08T05:17:41.729Z,15.37
2023-05-08T05:20:14.102Z,15.50
2023-05-08T05:22:42.492Z,15.64
2023-05-08T05:25:12.938Z,15.70
2023-05-08T05:27:41.761Z,16.18
2023-05-08T05:30:11.019Z,15.92
2023-05-08T05:32:39.626Z,15.97
2023-05-08T05:35:10.658Z,15.71
2023-05-08T05:37:39.116Z,15.94
2023-05-08T05:40:13.333Z,16.02
2023-05-08T05:42:42.044Z,16.23
2023-05-08T05:45:11.606Z,16.21
2023-05-08T05:47:45.883Z,16.22
2023-05-08T05:50:14.349Z,16.52
2023-05-08T05:52:45.837Z,16.07
2023-05-08T05:55:16.207Z,15.66
2023-05-08T05:57:44.754Z,16.30
2023-05-08T06:00:14.391Z,15.82
2023-05-08T06:02:42.888Z,15.77
2023-05-08T06:05:15.211Z,15.59
2023-05-08T06:07:46.312Z,15.67
2023-05-08T06:10:16.182Z,15.77
2023-05-08T06:12:44.561Z,15.32
2023-05-08T06:15:14.836Z,15.52
2023-05-08T06:17:45.110Z,15.45
2023-05-08T06:20:14.258Z,15.72
2023-05-08T06:22:42.676Z,15.55
2023-05-08T06:25:11.817Z,15.37
2023-05-08T06:27:41.708Z,15.51
2023-05-08T06:30:10.851Z,15.62
2023-05-08T06:32:39.261Z,15.53
2023-05-08T06:35:08.728Z,15.77
2023-05-08T06:37:37.143Z,15.70
2023-05-08T06:42:38.034Z,15.58
2023-05-08T06:45:09.111Z,15.63
2023-05-08T06:47:37.596Z,15.69
2023-05-08T06:50:07.259Z,15.66
2023-05-08T06:52:38.603Z,15.91
2023-05-08T06:55:07.848Z,15.86
2023-05-08T06:57:36.717Z,16.04
2023-05-08T07:00:06.111Z,15.86
2023-05-08T07:02:35.907Z,15.79
2023-05-08T07:05:04.777Z,16.10
2023-05-08T07:07:33.184Z,16.07
2023-05-08T07:10:05.377Z,15.90
2023-05-08T07:12:34.833Z,16.18
2023-05-08T07:15:17.870Z,16.03
2023-05-08T07:17:55.014Z,16.27
2023-05-08T07:20:24.350Z,16.53
2023-05-08T07:22:52.952Z,16.55
2023-05-08T07:25:21.417Z,16.63
2023-05-08T07:27:49.775Z,16.71
2023-05-08T07:30:18.273Z,16.09
2023-05-08T07:32:46.574Z,16.21
2023-05-08T07:35:16.522Z,16.45
2023-05-08T07:37:45.025Z,16.57
2023-05-08T07:40:15.469Z,16.58
2023-05-08T07:42:45.822Z,16.73
2023-05-08T07:45:16.601Z,16.43
2023-05-08T07:47:51.733Z,16.93
2023-05-08T07:50:22.991Z,16.37
2023-05-08T07:52:51.859Z,16.41
2023-05-08T07:55:21.487Z,16.48
2023-05-08T07:57:49.787Z,16.62
2023-05-08T08:00:18.732Z,16.61
2023-05-08T08:02:47.164Z,16.80
2023-05-08T08:05:17.873Z,16.69
2023-05-08T08:07:47.538Z,16.76
2023-05-08T08:10:18.407Z,17.14
2023-05-08T08:12:46.876Z,16.67
2023-05-08T08:15:15.352Z,16.94
2023-05-08T08:17:43.924Z,16.82
2023-05-08T08:20:13.133Z,16.88
2023-05-08T08:22:41.457Z,17.23
2023-05-08T08:25:12.553Z,16.92
2023-05-08T08:27:43.474Z,17.02
2023-05-08T08:30:16.695Z,16.88
2023-05-08T08:32:45.896Z,17.52
2023-05-08T08:35:15.065Z,17.22
2023-05-08T08:37:46.351Z,16.70
2023-05-08T08:40:16.084Z,16.77
2023-05-08T08:42:44.482Z,16.88
2023-05-08T08:45:13.305Z,16.55
2023-05-08T08:47:46.558Z,16.36
2023-05-08T08:50:15.918Z,16.57
2023-05-08T08:52:54.366Z,16.88
2023-05-08T08:55:27.494Z,16.63
2023-05-08T08:58:08.543Z,16.48
2023-05-08T09:00:39.563Z,16.60
2023-05-08T09:03:08.539Z,17.06
2023-05-08T09:05:37.547Z,17.04
2023-05-08T09:08:09.446Z,16.73
2023-05-08T09:10:39.264Z,17.47
2023-05-08T09:13:07.873Z,16.99
2023-05-08T09:15:36.674Z,17.09
2023-05-08T09:18:07.546Z,16.77
2023-05-08T09:20:36.549Z,17.18
2023-05-08T09:23:07.691Z,17.06
2023-05-08T09:25:43.898Z,16.64
2023-05-08T09:28:17.170Z,17.07
2023-05-08T09:30:53.413Z,16.76
2023-05-08T09:33:23.310Z,16.83
2023-05-08T09:35:51.722Z,17.30
2023-05-08T09:38:46.969Z,16.98
2023-05-08T09:41:17.734Z,16.88
2023-05-08T09:44:00.806Z,17.18
2023-05-08T09:46:30.001Z,17.26
2023-05-08T09:49:00.761Z,17.47
2023-05-08T09:51:30.386Z,17.71
2023-05-08T09:54:00.149Z,17.49
2023-05-08T09:56:34.246Z,17.51
2023-05-08T09:59:04.857Z,17.55
2023-05-08T10:01:37.371Z,17.26
2023-05-08T10:04:06.376Z,17.26
2023-05-08T10:06:36.489Z,17.43
2023-05-08T10:09:10.107Z,17.50
2023-05-08T10:11:40.640Z,17.54
2023-05-08T10:14:09.596Z,17.39
2023-05-08T10:16:45.006Z,18.34
2023-05-08T10:19:15.713Z,17.71
2023-05-08T10:21:48.452Z,18.05
2023-05-08T10:24:18.783Z,17.66
2023-05-08T10:27:06.874Z,17.80
2023-05-08T10:29:43.596Z,18.46
2023-05-08T10:32:14.216Z,18.31
2023-05-08T10:34:44.122Z,18.73
2023-05-08T10:37:14.548Z,18.32
2023-05-08T10:39:45.319Z,17.55
2023-05-08T10:42:17.798Z,17.66
2023-05-08T10:44:46.457Z,17.55
2023-05-08T10:47:23.691Z,17.89
2023-05-08T10:50:01.514Z,17.73
2023-05-08T10:52:37.734Z,17.61
2023-05-08T10:55:21.216Z,18.06
2023-05-08T10:58:10.192Z,18.83
2023-05-08T11:01:12.833Z,18.16
2023-05-08T11:03:43.461Z,18.00
2023-05-08T11:06:12.498Z,17.90
2023-05-08T11:08:49.269Z,17.89
2023-05-08T11:11:31.511Z,17.76
2023-05-08T11:14:12.541Z,17.84
2023-05-08T11:17:09.634Z,17.66
2023-05-08T11:19:39.530Z,17.88
2023-05-08T11:22:16.020Z,17.64
2023-05-08T11:24:54.212Z,18.28
2023-05-08T11:27:33.565Z,18.46
2023-05-08T11:30:26.389Z,18.82
2023-05-08T11:33:14.919Z,17.90
2023-05-08T11:35:54.633Z,18.02
2023-05-08T11:38:31.233Z,18.02
2023-05-08T11:41:04.657Z,18.02
2023-05-08T11:43:59.494Z,18.88
2023-05-08T11:46:39.105Z,18.48
2023-05-08T11:49:11.347Z,18.05
2023-05-08T11:51:44.656Z,17.77
2023-05-08T11:54:17.864Z,17.90
2023-05-08T11:56:49.643Z,17.67
2023-05-08T11:59:18.910Z,18.05
2023-05-08T12:02:06.918Z,17.72
2023-05-08T12:04:45.353Z,17.71
2023-05-08T12:07:16.999Z,17.61
2023-05-08T12:09:48.506Z,17.61
2023-05-08T12:12:18.987Z,17.80
2023-05-08T12:14:50.797Z,17.79
2023-05-08T12:17:23.088Z,17.53
2023-05-08T12:19:56.439Z,17.49
2023-05-08T12:22:24.855Z,17.63
2023-05-08T12:24:53.264Z,17.63
2023-05-08T12:27:21.604Z,17.74
2023-05-08T12:29:50.025Z,18.41
2023-05-08T12:32:18.375Z,18.44
2023-05-08T12:34:50.435Z,18.31
2023-05-08T12:37:25.300Z,17.91
2023-05-08T12:39:53.772Z,17.90
2023-05-08T12:42:22.195Z,18.44
2023-05-08T12:44:54.074Z,18.83
2023-05-08T12:47:22.415Z,18.66
2023-05-08T12:49:52.567Z,18.60
2023-05-08T12:52:20.855Z,18.37
2023-05-08T12:54:49.991Z,18.27
2023-05-08T12:57:21.251Z,18.59
2023-05-08T12:59:49.634Z,19.06
2023-05-08T13:02:21.277Z,18.99
2023-05-08T13:04:49.734Z,18.57
2023-05-08T13:07:19.454Z,18.29
2023-05-08T13:09:57.880Z,19.11
2023-05-08T13:12:26.490Z,18.92
2023-05-08T13:14:54.895Z,19.10
2023-05-08T13:17:23.244Z,19.36
2023-05-08T13:19:51.565Z,19.41
2023-05-08T13:22:26.626Z,19.19
2023-05-08T13:24:55.094Z,19.50
2023-05-08T13:27:23.844Z,19.22
2023-05-08T13:29:52.183Z,18.95
2023-05-08T13:32:20.823Z,19.21
2023-05-08T13:34:54.033Z,19.07
2023-05-08T13:37:26.016Z,19.23
2023-05-08T13:39:54.388Z,19.81
2023-05-08T13:42:22.968Z,19.37
2023-05-08T13:44:51.304Z,19.62
2023-05-08T13:47:19.640Z,19.54
2023-05-08T13:49:48.905Z,19.81
2023-05-08T13:52:17.286Z,19.89
2023-05-08T13:54:49.520Z,19.44
2023-05-08T13:57:17.965Z,19.40
2023-05-08T13:59:46.280Z,19.39
2023-05-08T14:02:15.061Z,19.81
2023-05-08T14:04:45.801Z,19.82
2023-05-08T14:07:14.140Z,19.36
2023-05-08T14:09:44.362Z,18.64
2023-05-08T14:12:16.421Z,18.07
2023-05-08T14:14:47.044Z,17.94
2023-05-08T14:17:18.076Z,17.91
2023-05-08T14:19:47.009Z,18.60
2023-05-08T14:22:15.321Z,17.47
2023-05-08T14:24:44.207Z,17.35
2023-05-08T14:27:12.625Z,17.46
2023-05-08T14:29:42.448Z,17.15
2023-05-08T14:32:11.528Z,17.20
2023-05-08T14:34:39.807Z,17.18
2023-05-08T14:37:08.188Z,17.07
2023-05-08T14:39:36.569Z,17.29
2023-05-08T14:42:22.061Z,17.02
2023-05-08T14:44:56.089Z,16.91
2023-05-08T14:47:24.508Z,16.90
2023-05-08T14:49:53.620Z,16.90
2023-05-08T14:52:24.220Z,16.84
2023-05-08T14:54:53.799Z,16.71
2023-05-08T14:57:22.507Z,16.58
2023-05-08T14:59:54.984Z,16.68
2023-05-08T15:02:25.271Z,16.73
2023-05-08T15:04:54.059Z,16.62
2023-05-08T15:07:22.485Z,17.11
2023-05-08T15:09:50.991Z,16.59
2023-05-08T15:12:19.369Z,-143.11
2023-05-08T15:14:47.651Z,-143.11
2023-05-08T15:17:17.556Z,-143.11
2023-05-08T15:19:47.236Z,-143.11
2023-05-08T15:22:17.980Z,-143.11
2023-05-08T15:24:46.398Z,-143.11
2023-05-08T15:27:14.707Z,-143.11
2023-05-08T15:29:42.984Z,-143.11
2023-05-08T15:32:11.344Z,-143.11
2023-05-08T15:34:42.244Z,-143.11
2023-05-08T15:37:11.957Z,-143.11
2023-05-08T15:39:40.512Z,-143.11
2023-05-08T15:42:08.882Z,-143.11
2023-05-08T15:44:54.208Z,-143.11
2023-05-08T15:47:23.915Z,-143.11
2023-05-08T15:49:54.774Z,-143.11
2023-05-08T15:52:24.557Z,-143.11
2023-05-08T15:54:53.003Z,-143.11
2023-05-08T15:57:21.446Z,-143.11
2023-05-08T15:59:49.864Z,-143.11
2023-05-08T16:02:18.195Z,-143.11
2023-05-08T16:04:47.773Z,-143.11
2023-05-08T16:07:16.200Z,-143.11
2023-05-08T16:09:46.062Z,-143.11
2023-05-08T16:12:14.404Z,-143.11
2023-05-08T16:14:42.708Z,-143.11
2023-05-08T16:17:11.038Z,-143.11
2023-05-08T16:19:39.411Z,-143.11
2023-05-08T16:22:07.734Z,-143.11
2023-05-08T16:24:36.075Z,-143.11
2023-05-08T16:27:07.874Z,-143.11
2023-05-08T16:29:36.980Z,-143.11
2023-05-08T16:32:05.694Z,-143.11
2023-05-08T16:34:35.172Z,-143.11
2023-05-08T16:37:03.626Z,-143.11
2023-05-08T16:39:34.285Z,-143.11
2023-05-08T16:42:03.022Z,-143.11
2023-05-08T16:44:32.878Z,-143.11
2023-05-08T16:47:01.214Z,-143.11
2023-05-08T16:49:29.573Z,-143.11
2023-05-08T16:51:57.889Z,-143.11
2023-05-08T16:54:26.250Z,-143.11
2023-05-08T16:56:54.539Z,-143.11
2023-05-08T16:59:22.979Z,-143.11
2023-05-08T17:01:52.694Z,-143.11
2023-05-08T17:04:21.045Z,-143.11
2023-05-08T17:06:49.322Z,-143.11
2023-05-08T17:09:19.523Z,-143.11
2023-05-08T17:11:47.806Z,-143.11
2023-05-08T17:14:16.091Z,-143.11
2023-05-08T17:16:44.406Z,-143.11
2023-05-08T17:19:14.183Z,-143.11
2023-05-08T17:21:42.560Z,-143.11
2023-05-08T17:24:10.881Z,-143.11
2023-05-08T17:26:39.189Z,-143.11
2023-05-08T17:29:07.492Z,-143.11
2023-05-08T17:31:35.827Z,-143.11
2023-05-08T17:34:04.273Z,-143.11
2023-05-08T17:36:33.976Z,-143.11
2023-05-08T17:39:02.278Z,-143.11
2023-05-08T17:41:30.719Z,-143.11
2023-05-08T17:43:59.073Z,-143.11
2023-05-08T17:46:27.578Z,-143.11
2023-05-08T17:48:55.945Z,-143.11
2023-05-08T17:51:24.333Z,-143.11
2023-05-08T17:53:54.016Z,-143.11
2023-05-08T17:56:23.294Z,-143.11
2023-05-08T17:58:52.256Z,-143.11
2023-05-08T18:01:21.056Z,-143.11
2023-05-08T18:03:49.439Z,-143.11
2023-05-08T18:06:18.233Z,-143.11
2023-05-08T18:08:47.188Z,-143.11
2023-05-08T18:11:21.049Z,-143.11
2023-05-08T18:13:50.306Z,-143.11
2023-05-08T18:16:21.962Z,-143.11
2023-05-08T18:18:53.029Z,-143.11
2023-05-08T18:21:21.421Z,-143.11
2023-05-08T18:23:49.785Z,-143.11
2023-05-08T18:26:19.419Z,-143.11
2023-05-08T18:28:47.806Z,-143.11
2023-05-08T18:31:16.622Z,-143.11
2023-05-08T18:33:45.846Z,-143.11
2023-05-08T18:36:14.290Z,-143.11
2023-05-08T18:38:45.384Z,-143.11
2023-05-08T18:41:13.694Z,-143.11
2023-05-08T18:43:43.478Z,-143.11
2023-05-08T18:46:14.811Z,-143.11
2023-05-08T18:48:45.388Z,-143.11
2023-05-08T18:51:13.732Z,-143.11
2023-05-08T18:53:42.106Z,-143.11
2023-05-08T18:56:11.483Z,-143.11
2023-05-08T18:58:39.819Z,-143.11
2023-05-08T19:01:10.035Z,-143.11
2023-05-08T19:03:38.551Z,-143.11
2023-05-08T19:06:07.290Z,-143.11
2023-05-08T19:08:35.604Z,-143.11
2023-05-08T19:11:03.961Z,-143.11
2023-05-08T19:13:32.268Z,-143.11
2023-05-08T19:16:01.108Z,-143.11
2023-05-08T19:18:31.876Z,-143.11
2023-05-08T19:21:01.759Z,-143.11
2023-05-08T19:23:30.078Z,-143.11
2023-05-08T19:25:58.479Z,-143.11
2023-05-08T19:28:26.808Z,-143.11
2023-05-08T19:30:55.117Z,-143.11
2023-05-08T19:33:23.987Z,-143.11
2023-05-08T19:35:54.199Z,-143.11
2023-05-08T19:38:22.575Z,-143.11
2023-05-08T19:40:56.704Z,-143.11
2023-05-08T19:43:27.020Z,-143.11
2023-05-08T19:45:58.514Z,-143.11
2023-05-08T19:48:27.064Z,-143.11
2023-05-08T19:50:57.086Z,-143.11
2023-05-08T19:53:25.583Z,-143.11
2023-05-08T19:55:53.931Z,-143.11
2023-05-08T19:58:22.319Z,-143.11
2023-05-08T20:00:51.231Z,-143.11
2023-05-08T20:03:20.366Z,-143.11
2023-05-08T20:05:49.169Z,-143.11
2023-05-08T20:08:21.296Z,-143.11
2023-05-08T20:10:49.871Z,-143.11
2023-05-08T20:13:20.691Z,-143.11
2023-05-08T20:15:49.179Z,-143.11
2023-05-08T20:18:19.836Z,-143.11
2023-05-08T20:20:48.313Z,-143.11
2023-05-08T20:23:16.718Z,-143.11
2023-05-08T20:25:47.657Z,-143.11
2023-05-08T20:28:18.721Z,-143.11
2023-05-08T20:30:47.077Z,-143.11
2023-05-08T20:33:15.806Z,-143.11
2023-05-08T20:35:44.108Z,-143.11
2023-05-08T20:38:12.509Z,-143.11
2023-05-08T20:40:41.046Z,-143.11
2023-05-08T20:43:11.174Z,-143.11
2023-05-08T20:45:39.679Z,-143.11
2023-05-08T20:48:08.121Z,-143.11
2023-05-08T20:50:38.831Z,-143.11
2023-05-08T20:53:07.156Z,-143.11
2023-05-08T20:55:35.499Z,-143.11
2023-05-08T20:58:04.204Z,-143.11
2023-05-08T21:00:34.650Z,-143.11
2023-05-08T21:03:03.361Z,-143.11
2023-05-08T21:05:31.823Z,-143.11
2023-05-08T21:08:02.396Z,-143.11
2023-05-08T21:10:31.355Z,-143.11
2023-05-08T21:12:59.782Z,-143.11
2023-05-08T21:15:28.169Z,-143.11
2023-05-08T21:17:58.201Z,-143.11
2023-05-08T21:20:26.700Z,-143.11
2023-05-08T21:22:55.264Z,-143.11
2023-05-08T21:25:26.006Z,-143.11
2023-05-08T21:27:55.409Z,-143.11
2023-05-08T21:30:23.941Z,-143.11
2023-05-08T21:32:52.280Z,-143.11
2023-05-08T21:35:22.212Z,-143.11
2023-05-08T21:37:54.383Z,-143.11
2023-05-08T21:40:23.034Z,-143.11
2023-05-08T21:42:51.323Z,-143.11
2023-05-08T21:45:19.737Z,-143.11
2023-05-08T21:47:50.301Z,-143.11
2023-05-08T21:50:18.849Z,-143.11
2023-05-08T21:52:48.565Z,-143.11
2023-05-08T21:55:16.851Z,-143.11
2023-05-08T21:57:45.376Z,-143.11
2023-05-08T22:02:37.421Z,15.37
2023-05-08T22:05:09.504Z,15.68
2023-05-08T22:07:37.768Z,15.87
2023-05-08T22:10:09.046Z,15.83
2023-05-08T22:12:37.713Z,15.59
2023-05-08T22:15:12.119Z,15.57
2023-05-08T22:17:48.033Z,15.90
2023-05-08T22:20:16.441Z,15.41
2023-05-08T22:22:44.776Z,15.40
2023-05-08T22:25:13.200Z,15.62
2023-05-08T22:27:41.830Z,15.64
2023-05-08T22:30:10.375Z,15.44
2023-05-08T22:32:38.650Z,15.35
2023-05-08T22:35:09.132Z,15.12
2023-05-08T22:37:37.669Z,15.02
2023-05-08T22:40:07.292Z,14.85
2023-05-08T22:42:36.273Z,15.23
2023-05-08T22:45:05.329Z,15.37
2023-05-08T22:47:34.856Z,15.63
2023-05-08T22:50:08.528Z,15.61
2023-05-08T22:52:38.830Z,15.60
2023-05-08T22:55:10.425Z,15.53
2023-05-08T22:57:41.026Z,15.81
2023-05-08T23:00:10.402Z,15.72
2023-05-08T23:02:38.752Z,15.61
2023-05-08T23:05:08.833Z,15.58
2023-05-08T23:07:38.594Z,15.72
2023-05-08T23:10:07.914Z,15.43
2023-05-08T23:12:36.931Z,15.07
2023-05-08T23:15:05.870Z,15.33
2023-05-08T23:17:36.253Z,15.42
2023-05-08T23:20:08.158Z,15.61
2023-05-08T23:22:37.824Z,15.54
2023-05-08T23:25:07.107Z,15.58
2023-05-08T23:27:37.474Z,15.60
2023-05-08T23:30:07.042Z,15.54
2023-05-08T23:32:35.400Z,15.44
2023-05-08T23:35:06.875Z,15.38
2023-05-08T23:37:35.259Z,15.45
2023-05-08T23:40:06.815Z,15.40
2023-05-08T23:42:37.073Z,15.17
2023-05-08T23:45:08.653Z,15.18
2023-05-08T23:47:37.077Z,15.29
2023-05-08T23:50:06.667Z,15.02
2023-05-08T23:52:35.019Z,15.26
2023-05-08T23:55:06.411Z,15.55
2023-05-08T23:57:34.668Z,15.43
